Terminal Aerodrome Forecast
Issued by NWS La Crosse, WI

Home | Current Version | Previous Version | Text Only | Print | Product List | Glossary On
Versions: 1 2 3 4 5 6 7 8 9 10 11 12 13 14 15 16 17 18 19 20 21 22 23
000
FTUS43 KARX 251728
TAFLSE
TAF
KLSE 251728Z 2518/2618 17009KT P6SM -SHRA VCTS BKN090CB
     FM252000 17010KT P6SM BKN200
     FM260500 17007KT P6SM BKN200 WS020/22040KT
     FM261200 VRB03KT P6SM BKN090
     FM261500 20004KT P6SM BKN035=

USA.gov is the U.S. government's official web portal to all federal, state and local government web resources and services.